createdAt,value
2019-04-27T00:01:55.295Z,62.70
2019-04-27T00:04:32.874Z,62.70
2019-04-27T00:07:03.368Z,62.80
2019-04-27T00:09:34.105Z,62.90
2019-04-27T00:12:05.746Z,62.90
2019-04-27T00:14:34.711Z,62.70
2019-04-27T00:17:41.244Z,62.90
2019-04-27T00:19:55.640Z,63.00
2019-04-27T00:22:25.549Z,63.20
2019-04-27T00:24:54.369Z,63.50
2019-04-27T00:27:23.493Z,63.30
2019-04-27T00:29:53.568Z,63.30
2019-04-27T00:32:23.139Z,63.80
2019-04-27T00:34:53.255Z,63.60
2019-04-27T00:37:40.058Z,63.80
2019-04-27T00:40:10.759Z,63.80
2019-04-27T00:42:39.554Z,64.40
2019-04-27T00:45:08.592Z,64.10
2019-04-27T00:47:37.366Z,64.20
2019-04-27T00:50:07.798Z,64.50
2019-04-27T00:52:36.562Z,64.70
2019-04-27T00:55:06.894Z,64.60
2019-04-27T00:57:39.992Z,64.70
2019-04-27T01:00:23.530Z,65.20
2019-04-27T01:02:57.009Z,65.30
2019-04-27T01:05:27.560Z,65.60
2019-04-27T01:07:56.386Z,65.80
2019-04-27T01:10:25.333Z,65.40
2019-04-27T01:12:54.167Z,65.60
2019-04-27T01:15:24.435Z,65.50
2019-04-27T01:17:53.277Z,65.70
2019-04-27T01:20:22.103Z,65.90
2019-04-27T01:22:50.944Z,65.70
2019-04-27T01:25:21.337Z,65.80
2019-04-27T01:27:51.775Z,66.00
2019-04-27T01:30:31.172Z,65.90
2019-04-27T01:33:00.006Z,65.90
2019-04-27T01:35:28.910Z,65.60
2019-04-27T01:37:58.924Z,65.70
2019-04-27T01:40:29.396Z,65.90
2019-04-27T01:42:58.829Z,66.20
2019-04-27T01:45:29.036Z,66.10
2019-04-27T01:47:59.594Z,66.20
2019-04-27T01:50:29.008Z,66.40
2019-04-27T01:52:58.780Z,66.40
2019-04-27T01:55:27.728Z,66.20
2019-04-27T01:57:56.485Z,66.00
2019-04-27T02:00:29.521Z,66.90
2019-04-27T02:02:59.890Z,67.30
2019-04-27T02:05:39.641Z,67.40
2019-04-27T02:08:09.418Z,65.90
2019-04-27T02:10:39.410Z,66.90
2019-04-27T02:13:08.970Z,66.50
2019-04-27T02:15:37.063Z,66.90
2019-04-27T02:18:06.542Z,66.70
2019-04-27T02:20:35.317Z,66.70
2019-04-27T02:23:04.352Z,66.60
2019-04-27T02:25:33.186Z,67.00
2019-04-27T02:28:03.587Z,67.10
2019-04-27T02:30:36.739Z,67.50
2019-04-27T02:33:12.862Z,68.40
2019-04-27T02:35:42.083Z,68.70
2019-04-27T02:38:10.902Z,68.20
2019-04-27T02:40:54.487Z,68.20
2019-04-27T02:43:29.612Z,67.30
2019-04-27T02:46:00.462Z,68.60
2019-04-27T02:48:29.661Z,68.40
2019-04-27T02:51:00.387Z,69.60
2019-04-27T02:53:49.683Z,68.20
2019-04-27T02:56:20.005Z,68.90
2019-04-27T02:58:49.628Z,67.90
2019-04-27T03:01:20.057Z,68.40
2019-04-27T03:03:50.241Z,68.60
2019-04-27T03:06:19.870Z,68.30
2019-04-27T03:08:53.362Z,68.00
2019-04-27T03:11:20.523Z,67.70
2019-04-27T03:13:51.965Z,68.10
2019-04-27T03:16:22.421Z,68.40
2019-04-27T03:19:10.103Z,68.10
2019-04-27T03:21:29.697Z,68.00
2019-04-27T03:24:00.174Z,67.70
2019-04-27T03:26:31.154Z,67.80
2019-04-27T03:29:00.130Z,67.50
2019-04-27T03:31:32.852Z,67.50
2019-04-27T03:34:04.774Z,67.80
2019-04-27T03:36:31.640Z,68.20
2019-04-27T03:39:00.571Z,67.80
2019-04-27T03:41:29.407Z,68.00
2019-04-27T03:43:59.536Z,67.40
2019-04-27T03:46:30.274Z,67.10
2019-04-27T03:49:00.045Z,67.00
2019-04-27T03:51:33.517Z,66.70
2019-04-27T03:54:03.939Z,66.70
2019-04-27T03:56:39.350Z,66.20
2019-04-27T03:59:24.430Z,66.20
2019-04-27T04:01:53.266Z,66.40
2019-04-27T04:04:22.019Z,66.20
2019-04-27T04:06:50.857Z,65.70
2019-04-27T04:09:21.263Z,65.50
2019-04-27T04:11:51.677Z,65.10
2019-04-27T04:14:24.922Z,65.00
2019-04-27T04:17:01.823Z,64.50
2019-04-27T04:19:31.556Z,65.00
2019-04-27T04:21:59.887Z,64.50
2019-04-27T04:24:29.355Z,64.80
2019-04-27T04:26:59.944Z,64.10
2019-04-27T04:29:30.683Z,64.10
2019-04-27T04:32:00.463Z,62.70
2019-04-27T04:34:29.924Z,62.00
2019-04-27T04:37:00.498Z,61.50
2019-04-27T04:39:29.740Z,60.90
2019-04-27T04:42:10.228Z,60.90
2019-04-27T04:44:43.813Z,58.00
2019-04-27T04:47:19.388Z,52.80
2019-04-27T04:49:51.168Z,49.50
2019-04-27T04:52:19.736Z,46.40
2019-04-27T04:54:49.600Z,44.40
2019-04-27T04:57:19.560Z,44.50
2019-04-27T04:59:51.072Z,42.90
2019-04-27T05:02:19.338Z,41.20
2019-04-27T05:04:49.209Z,40.20
2019-04-27T05:07:19.409Z,40.60
2019-04-27T05:09:48.638Z,40.50
2019-04-27T05:12:19.005Z,40.20
2019-04-27T05:14:48.968Z,39.70
2019-04-27T05:17:19.485Z,39.80
2019-04-27T05:19:49.200Z,39.60
2019-04-27T05:22:17.153Z,39.00
2019-04-27T05:24:49.245Z,37.80
2019-04-27T05:27:19.120Z,36.90
2019-04-27T05:29:48.830Z,38.30
2019-04-27T05:32:20.718Z,38.00
2019-04-27T05:34:49.617Z,37.10
2019-04-27T05:37:27.707Z,35.80
2019-04-27T05:39:48.798Z,36.40
2019-04-27T05:42:20.016Z,35.30
2019-04-27T05:45:19.995Z,33.40
2019-04-27T05:47:53.967Z,32.60
2019-04-27T05:50:35.316Z,30.70
2019-04-27T05:52:53.236Z,30.60
2019-04-27T05:55:22.084Z,33.40
2019-04-27T05:57:50.860Z,37.40
2019-04-27T06:00:21.502Z,40.10
2019-04-27T06:02:50.268Z,41.10
2019-04-27T06:05:19.089Z,43.70
2019-04-27T06:07:48.774Z,45.10
2019-04-27T06:10:19.672Z,47.90
2019-04-27T06:12:48.614Z,48.70
2019-04-27T06:15:17.504Z,49.30
2019-04-27T06:17:46.347Z,49.70
2019-04-27T06:20:15.488Z,50.80
2019-04-27T06:22:44.321Z,51.80
2019-04-27T06:25:13.574Z,51.90
2019-04-27T06:27:42.353Z,52.20
2019-04-27T06:30:11.167Z,52.50
2019-04-27T06:32:40.013Z,51.60
2019-04-27T06:35:12.091Z,51.30
2019-04-27T06:37:39.540Z,51.20
2019-04-27T06:40:09.751Z,50.60
2019-04-27T06:42:39.833Z,50.40
2019-04-27T06:45:09.895Z,50.30
2019-04-27T06:47:39.664Z,49.20
2019-04-27T06:50:09.499Z,49.30
2019-04-27T06:52:39.002Z,47.90
2019-04-27T06:55:07.143Z,48.60
2019-04-27T06:57:35.969Z,47.40
2019-04-27T07:00:06.504Z,46.30
2019-04-27T07:02:35.354Z,46.60
2019-04-27T07:05:05.475Z,46.20
2019-04-27T07:07:34.241Z,45.60
2019-04-27T07:10:03.177Z,42.90
2019-04-27T07:12:31.873Z,42.60
2019-04-27T07:15:00.703Z,43.00
2019-04-27T07:17:29.538Z,42.20
2019-04-27T07:19:59.838Z,41.80
2019-04-27T07:22:29.862Z,42.00
2019-04-27T07:25:02.418Z,41.60
2019-04-27T07:27:31.244Z,41.70
2019-04-27T07:30:01.732Z,41.60
2019-04-27T07:32:30.569Z,41.50
2019-04-27T07:34:59.418Z,41.80
2019-04-27T07:37:29.401Z,41.90
2019-04-27T07:39:59.161Z,41.50
2019-04-27T07:42:31.500Z,42.70
2019-04-27T07:45:00.208Z,42.00
2019-04-27T07:47:32.136Z,41.30
2019-04-27T07:50:01.496Z,40.40
2019-04-27T07:52:30.615Z,40.70
2019-04-27T07:54:59.460Z,40.60
2019-04-27T07:57:28.977Z,40.60
2019-04-27T07:59:57.064Z,40.60
2019-04-27T08:02:25.913Z,40.00
2019-04-27T08:04:54.791Z,40.20
2019-04-27T08:07:23.577Z,40.00
2019-04-27T08:09:52.441Z,39.80
2019-04-27T08:12:21.332Z,40.00
2019-04-27T08:14:50.064Z,40.00
2019-04-27T08:17:19.305Z,40.90
2019-04-27T08:19:49.659Z,40.30
2019-04-27T08:22:19.415Z,39.70
2019-04-27T08:24:49.566Z,38.60
2019-04-27T08:27:26.093Z,38.90
2019-04-27T08:30:02.446Z,39.50
2019-04-27T08:32:35.600Z,39.50
2019-04-27T08:35:06.335Z,38.80
2019-04-27T08:37:35.149Z,38.00
2019-04-27T08:40:09.256Z,37.10
2019-04-27T08:42:39.138Z,37.90
2019-04-27T08:45:09.377Z,36.60
2019-04-27T08:47:39.405Z,37.20
2019-04-27T08:50:09.252Z,36.80
2019-04-27T08:52:41.518Z,37.30
2019-04-27T08:55:10.143Z,37.20
2019-04-27T08:57:38.999Z,35.10
2019-04-27T09:00:11.071Z,33.50
2019-04-27T09:02:46.793Z,32.60
2019-04-27T09:05:31.030Z,31.30
2019-04-27T09:08:19.607Z,29.90
2019-04-27T09:11:08.915Z,29.30
2019-04-27T09:13:45.272Z,29.00
2019-04-27T09:16:15.687Z,28.80
2019-04-27T09:18:44.522Z,28.70
2019-04-27T09:21:13.366Z,28.60
2019-04-27T09:23:42.198Z,28.80
2019-04-27T09:26:11.191Z,28.60
2019-04-27T09:28:40.092Z,29.10
2019-04-27T09:31:09.300Z,29.30
2019-04-27T09:33:38.200Z,29.20
2019-04-27T09:36:07.115Z,28.50
2019-04-27T09:38:35.943Z,28.20
2019-04-27T09:41:07.022Z,27.80
2019-04-27T09:43:36.736Z,27.30
2019-04-27T09:46:05.878Z,27.10
2019-04-27T09:48:34.023Z,27.10
2019-04-27T09:51:02.868Z,26.00
2019-04-27T09:53:31.690Z,25.50
2019-04-27T09:56:01.355Z,27.60
2019-04-27T09:58:30.177Z,28.00
2019-04-27T10:00:59.016Z,28.70
2019-04-27T10:03:27.769Z,28.60
2019-04-27T10:05:57.081Z,28.70
2019-04-27T10:08:26.181Z,29.10
2019-04-27T10:10:56.696Z,28.10
2019-04-27T10:13:27.400Z,28.70
2019-04-27T10:15:56.156Z,29.30
2019-04-27T10:18:26.518Z,29.50
2019-04-27T10:20:59.635Z,29.80
2019-04-27T10:23:25.924Z,28.80
2019-04-27T10:25:55.754Z,28.40
2019-04-27T10:28:24.683Z,29.70
2019-04-27T10:30:55.721Z,29.60
2019-04-27T10:33:25.813Z,30.40
2019-04-27T10:35:56.309Z,32.10
2019-04-27T10:38:25.885Z,31.10
2019-04-27T10:40:55.021Z,31.80
2019-04-27T10:43:25.676Z,31.60
2019-04-27T10:45:56.347Z,30.90
2019-04-27T10:48:26.461Z,31.10
2019-04-27T10:50:55.482Z,32.40
2019-04-27T10:53:26.733Z,33.60
2019-04-27T10:55:56.553Z,32.90
2019-04-27T10:58:27.167Z,32.50
2019-04-27T11:00:58.472Z,32.20
2019-04-27T11:03:46.254Z,32.90
2019-04-27T11:09:19.715Z,34.20
2019-04-27T11:11:48.542Z,34.00
2019-04-27T11:17:06.314Z,34.40
2019-04-27T11:19:35.785Z,35.30
